Time;durP1;ratioP1;P1;durP2;ratioP2;P2;SDS_P1;SDS_P2;PMS_P1;PMS_P2;Temp;Humidity;BMP_temperature;BMP_pressure;BME280_temperature;BME280_humidity;BME280_pressure;Samples;Min_cycle;Max_cycle;Signal;HPM_P1;HPM_P2
2021/09/24 00:02:09;;;;;;;16.07;5.33;;;;;;;13.60;69.09;100853.44;5057554;28;20173;-66
2021/09/24 00:04:36;;;;;;;22.37;6.23;;;;;;;13.85;68.62;100850.78;5057588;28;20166;-67
2021/09/24 00:07:02;;;;;;;24.73;6.30;;;;;;;13.63;69.29;100846.44;5057772;28;20411;-67
2021/09/24 00:09:28;;;;;;;14.73;5.50;;;;;;;13.58;69.41;100839.47;5057713;28;20397;-66
2021/09/24 00:11:53;;;;;;;19.87;6.27;;;;;;;13.51;70.06;100832.50;5057948;28;20375;-67
2021/09/24 00:14:18;;;;;;;18.60;6.30;;;;;;;13.60;70.40;100833.34;5057654;28;20178;-67
2021/09/24 00:16:44;;;;;;;20.70;5.40;;;;;;;13.32;70.45;100838.56;5057661;28;20177;-66
2021/09/24 00:19:09;;;;;;;19.00;6.47;;;;;;;13.29;70.44;100837.72;5058069;28;20267;-67
2021/09/24 00:21:35;;;;;;;18.20;5.53;;;;;;;13.42;71.16;100839.50;5057581;28;20233;-67
2021/09/24 00:24:01;;;;;;;28.13;7.10;;;;;;;13.19;69.85;100846.41;5057576;28;20562;-67
2021/09/24 00:26:26;;;;;;;23.27;8.13;;;;;;;13.05;70.73;100849.91;5057653;28;20236;-66
2021/09/24 00:28:52;;;;;;;20.30;6.30;;;;;;;13.32;69.58;100837.69;5057625;28;20233;-66
2021/09/24 00:31:17;;;;;;;21.90;6.20;;;;;;;13.18;70.07;100842.94;5057611;28;20569;-67
2021/09/24 00:33:42;;;;;;;18.13;6.40;;;;;;;13.21;70.49;100848.16;5038569;28;20197;-68
2021/09/24 00:36:08;;;;;;;16.93;6.37;;;;;;;13.45;70.13;100842.09;5038377;28;20261;-66
2021/09/24 00:38:38;;;;;;;22.87;6.73;;;;;;;13.50;69.89;100841.22;5041395;28;20248;-67
2021/09/24 00:41:03;;;;;;;22.03;6.10;;;;;;;13.32;71.10;100850.78;5041430;28;20166;-67
2021/09/24 00:43:28;;;;;;;20.33;6.67;;;;;;;12.98;71.30;100850.78;5041610;28;20768;-68
2021/09/24 00:45:54;;;;;;;20.57;6.83;;;;;;;13.18;70.18;100855.13;5041590;28;20474;-67
2021/09/24 00:48:19;;;;;;;20.07;6.00;;;;;;;12.89;71.50;100856.84;5041533;28;20166;-67
2021/09/24 00:50:44;;;;;;;18.13;5.63;;;;;;;13.29;70.49;100859.50;5040549;28;20528;-67
2021/09/24 00:53:10;;;;;;;22.43;6.73;;;;;;;13.27;70.11;100853.44;5040977;28;20559;-67
2021/09/24 00:55:36;;;;;;;19.30;7.20;;;;;;;13.42;70.20;100859.53;5040673;28;20253;-68
2021/09/24 00:58:02;;;;;;;17.80;6.23;;;;;;;13.20;70.87;100851.66;5040535;28;20190;-68
2021/09/24 01:00:27;;;;;;;17.00;6.00;;;;;;;13.26;70.72;100853.41;5040749;28;20420;-67
2021/09/24 01:02:52;;;;;;;21.77;6.20;;;;;;;13.62;69.62;100856.91;5040722;28;20225;-66
2021/09/24 01:05:18;;;;;;;14.53;5.80;;;;;;;13.43;70.09;100851.69;5039731;28;20280;-67
2021/09/24 01:07:45;;;;;;;22.93;6.20;;;;;;;13.57;69.40;100851.69;5040317;28;20170;-66
2021/09/24 01:10:12;;;;;;;18.67;5.97;;;;;;;13.37;69.59;100851.69;5040583;28;20231;-67
2021/09/24 01:12:38;;;;;;;29.03;8.87;;;;;;;13.36;69.58;100863.03;5040450;28;20387;-66
2021/09/24 01:15:06;;;;;;;19.33;6.50;;;;;;;13.24;69.73;100860.41;5040736;28;20392;-66
2021/09/24 01:17:32;;;;;;;18.37;5.57;;;;;;;13.33;69.89;100865.63;5040673;28;20173;-67
2021/09/24 01:19:58;;;;;;;24.90;6.00;;;;;;;13.41;69.75;100870.88;5040168;28;20407;-67
2021/09/24 01:22:23;;;;;;;16.03;6.30;;;;;;;13.41;69.35;100882.25;5040307;28;20174;-66
2021/09/24 01:24:48;;;;;;;22.73;9.30;;;;;;;13.57;68.48;100872.66;5040541;28;20855;-66
2021/09/24 01:27:14;;;;;;;17.10;6.20;;;;;;;13.53;69.06;100872.63;5040212;28;20486;-66
2021/09/24 01:29:39;;;;;;;20.53;6.40;;;;;;;13.60;69.24;100869.16;5040079;28;20478;-67
2021/09/24 01:32:05;;;;;;;17.47;6.50;;;;;;;13.57;69.58;100862.19;5040854;28;20585;-67
2021/09/24 01:34:30;;;;;;;18.23;5.73;;;;;;;13.26;71.29;100869.09;5058982;28;20185;-67
2021/09/24 01:36:56;;;;;;;22.70;5.67;;;;;;;13.21;71.33;100865.63;5059953;28;20558;-67
2021/09/24 01:39:21;;;;;;;22.63;8.03;;;;;;;13.25;71.15;100870.84;5060521;28;20180;-67
2021/09/24 01:41:48;;;;;;;18.20;6.73;;;;;;;13.07;71.99;100868.22;5059865;28;20176;-66
2021/09/24 01:44:14;;;;;;;19.87;6.13;;;;;;;12.93;72.87;100855.13;5059974;28;20161;-67
2021/09/24 01:46:40;;;;;;;22.20;5.67;;;;;;;13.08;72.07;100859.50;5060062;28;20426;-67
2021/09/24 01:49:06;;;;;;;19.37;7.30;;;;;;;13.00;72.01;100861.25;5058918;28;20427;-67
2021/09/24 01:51:33;;;;;;;22.50;7.23;;;;;;;12.98;72.32;100859.47;5059535;28;20727;-68
2021/09/24 01:53:58;;;;;;;27.40;6.43;;;;;;;12.90;72.04;100855.97;5060204;28;20774;-67
2021/09/24 01:56:23;;;;;;;21.20;6.13;;;;;;;12.84;72.94;100862.94;5042334;28;20387;-67
2021/09/24 01:58:49;;;;;;;18.63;6.13;;;;;;;12.72;73.79;100872.53;5059654;28;20256;-68
2021/09/24 02:01:14;;;;;;;24.97;6.40;;;;;;;12.67;73.11;100871.63;5059954;28;20170;-66
2021/09/24 02:03:39;;;;;;;18.17;6.07;;;;;;;12.87;72.39;100878.66;5059741;28;20165;-67
2021/09/24 02:06:05;;;;;;;18.03;5.33;;;;;;;12.81;72.37;100871.66;5059316;28;20210;-67
2021/09/24 02:08:30;;;;;;;13.33;4.67;;;;;;;12.77;73.31;100880.38;5059583;28;20173;-67
2021/09/24 02:10:55;;;;;;;20.90;6.30;;;;;;;12.66;73.58;100882.09;5059349;28;20526;-66
2021/09/24 02:13:20;;;;;;;22.07;6.93;;;;;;;12.68;73.72;100881.22;5059333;28;20649;-67
2021/09/24 02:15:46;;;;;;;20.50;6.00;;;;;;;12.57;73.58;100873.34;5059650;28;20240;-67
2021/09/24 02:18:11;;;;;;;14.47;5.83;;;;;;;12.43;74.44;100873.31;5059585;28;20217;-66
2021/09/24 02:20:36;;;;;;;32.47;7.03;;;;;;;12.56;74.26;100870.72;5058936;28;20189;-68
2021/09/24 02:23:02;;;;;;;20.53;5.67;;;;;;;12.60;73.96;100868.13;5059268;28;20217;-67
2021/09/24 02:25:28;;;;;;;24.13;6.67;;;;;;;12.67;73.15;100869.00;5058955;28;20215;-68
2021/09/24 02:27:53;;;;;;;21.73;6.33;;;;;;;12.57;74.12;100870.72;5058943;28;20248;-67
2021/09/24 02:30:18;;;;;;;13.63;5.90;;;;;;;12.23;74.88;100872.31;5059339;28;20271;-67
2021/09/24 02:32:44;;;;;;;26.57;8.90;;;;;;;12.48;74.23;100875.06;5058850;28;20188;-67
2021/09/24 02:35:09;;;;;;;14.50;5.20;;;;;;;12.58;74.48;100869.88;5058765;28;20418;-67
2021/09/24 02:37:35;;;;;;;18.07;5.20;;;;;;;12.39;75.64;100879.34;5059181;28;20402;-67
2021/09/24 02:40:00;;;;;;;18.53;6.13;;;;;;;12.37;74.72;100881.09;5058809;28;20474;-66
2021/09/24 02:42:26;;;;;;;26.87;6.67;;;;;;;12.33;75.53;100875.88;5058863;28;20506;-66
2021/09/24 02:44:51;;;;;;;17.07;7.07;;;;;;;12.25;76.13;100887.13;5059129;28;20574;-67
2021/09/24 02:47:16;;;;;;;22.00;6.33;;;;;;;12.42;75.61;100883.72;5058689;28;20166;-67
2021/09/24 02:49:42;;;;;;;20.03;6.10;;;;;;;12.22;76.10;100891.50;5058510;28;20311;-66
2021/09/24 02:52:08;;;;;;;18.33;5.30;;;;;;;12.47;75.83;100895.09;5058565;28;20343;-66
2021/09/24 02:54:33;;;;;;;28.07;6.87;;;;;;;12.38;76.00;100897.66;5058402;28;20210;-66
2021/09/24 02:56:58;;;;;;;18.83;6.03;;;;;;;12.12;76.59;100901.91;5058678;28;20409;-67
2021/09/24 02:59:24;;;;;;;23.17;6.57;;;;;;;12.18;75.93;100901.06;5058190;28;20252;-66
2021/09/24 03:01:49;;;;;;;26.70;5.53;;;;;;;12.10;76.36;100897.53;5058216;28;20177;-67
2021/09/24 03:04:14;;;;;;;23.90;6.23;;;;;;;12.05;76.49;100902.72;5058909;28;20248;-67
2021/09/24 03:06:40;;;;;;;19.83;6.93;;;;;;;12.17;75.59;100896.69;5041091;28;20250;-67
2021/09/24 03:09:06;;;;;;;27.80;9.00;;;;;;;11.93;77.00;100894.75;5058394;28;20162;-67
2021/09/24 03:11:32;;;;;;;18.87;5.80;;;;;;;12.23;75.72;100888.00;5058567;28;20379;-67
2021/09/24 03:13:57;;;;;;;26.33;7.77;;;;;;;12.33;75.23;100896.78;5058395;28;20445;-67
2021/09/24 03:16:22;;;;;;;27.10;7.87;;;;;;;12.10;75.97;100898.38;5057945;28;20201;-68
2021/09/24 03:18:48;;;;;;;20.63;6.60;;;;;;;12.38;75.19;100898.53;5058456;28;20169;-66
2021/09/24 03:21:13;;;;;;;25.00;7.77;;;;;;;12.34;75.25;100896.78;5058038;28;20174;-66
2021/09/24 03:23:39;;;;;;;23.73;7.90;;;;;;;12.21;75.01;100890.59;5058113;28;20495;-68
2021/09/24 03:26:04;;;;;;;31.33;11.27;;;;;;;12.39;75.30;100894.19;5058235;28;20193;-67
2021/09/24 03:28:30;;;;;;;17.40;7.43;;;;;;;12.41;74.83;100895.06;5058095;28;20166;-67
2021/09/24 03:30:55;;;;;;;16.63;6.53;;;;;;;12.26;75.25;100893.25;5057982;28;20170;-67
2021/09/24 03:33:21;;;;;;;15.30;5.93;;;;;;;12.39;75.10;100884.59;5057458;28;20414;-66
2021/09/24 03:35:46;;;;;;;20.20;6.23;;;;;;;12.52;74.38;100889.91;5058178;28;20166;-67
2021/09/24 03:38:12;;;;;;;22.80;6.50;;;;;;;12.17;75.29;100894.06;5057927;28;20269;-68
2021/09/24 03:40:37;;;;;;;17.17;7.40;;;;;;;12.51;76.03;100895.97;5058023;28;20170;-68
2021/09/24 03:43:02;;;;;;;16.47;6.80;;;;;;;12.28;75.13;100889.75;5057863;28;20562;-67
2021/09/24 03:45:28;;;;;;;19.00;5.60;;;;;;;12.38;74.49;100898.53;5057987;28;20236;-67
2021/09/24 03:47:54;;;;;;;21.93;7.17;;;;;;;12.29;75.78;100898.50;5058286;28;20180;-68
2021/09/24 03:50:19;;;;;;;17.60;5.93;;;;;;;12.30;75.78;100897.63;5057650;28;20527;-68
2021/09/24 03:52:44;;;;;;;20.80;6.70;;;;;;;12.29;75.09;100898.50;5040118;28;20471;-67
2021/09/24 03:55:10;;;;;;;19.40;6.27;;;;;;;12.22;75.75;100896.72;5058180;28;20204;-67
2021/09/24 03:57:35;;;;;;;16.93;5.83;;;;;;;12.40;74.93;100891.56;5058054;28;20173;-67
2021/09/24 04:00:00;;;;;;;21.73;7.13;;;;;;;12.30;76.34;100895.03;5057836;28;20440;-66
2021/09/24 04:02:26;;;;;;;20.10;7.13;;;;;;;12.08;76.51;100884.44;5058462;28;20434;-67
2021/09/24 04:04:51;;;;;;;18.73;5.87;;;;;;;12.36;76.11;100881.97;5057678;28;20204;-67
2021/09/24 04:07:19;;;;;;;17.67;6.17;;;;;;;11.88;77.20;100886.91;5057549;28;20176;-67
2021/09/24 04:09:44;;;;;;;18.90;6.40;;;;;;;12.26;75.56;100888.03;5057931;28;20166;-68
2021/09/24 04:12:10;;;;;;;18.87;5.70;;;;;;;12.15;77.03;100887.97;5059937;28;20401;-67
2021/09/24 04:14:35;;;;;;;21.00;6.17;;;;;;;12.22;76.29;100896.72;5061551;28;20502;-68
2021/09/24 04:17:01;;;;;;;27.20;8.13;;;;;;;12.33;76.14;100888.94;5062104;28;20227;-67
2021/09/24 04:19:26;;;;;;;20.23;6.00;;;;;;;12.08;76.03;100884.44;5061588;28;20563;-67
2021/09/24 04:21:52;;;;;;;21.47;7.37;;;;;;;12.37;75.49;100888.09;5061438;28;20248;-67
2021/09/24 04:24:17;;;;;;;20.07;6.43;;;;;;;12.28;76.13;100883.66;5061763;28;20526;-67
2021/09/24 04:26:42;;;;;;;17.40;6.00;;;;;;;12.52;75.71;100893.38;5061387;28;20233;-67
2021/09/24 04:29:08;;;;;;;20.07;5.80;;;;;;;12.20;75.41;100909.75;5061667;28;20169;-67
2021/09/24 04:31:34;;;;;;;22.00;6.50;;;;;;;12.38;75.54;100903.78;5061543;28;20511;-67
2021/09/24 04:33:59;;;;;;;19.03;5.80;;;;;;;12.44;75.65;100908.16;5061255;28;20227;-66
2021/09/24 04:36:24;;;;;;;16.60;6.53;;;;;;;12.52;74.52;100910.81;5061024;28;20573;-67
2021/09/24 04:38:49;;;;;;;24.90;6.43;;;;;;;12.64;74.50;100916.09;5061590;28;20169;-68
2021/09/24 04:41:15;;;;;;;22.77;6.10;;;;;;;12.46;75.01;100912.53;5060875;28;20192;-67
2021/09/24 04:43:40;;;;;;;30.20;6.43;;;;;;;12.48;75.79;100915.16;5043864;28;20257;-67
2021/09/24 04:46:06;;;;;;;21.90;6.27;;;;;;;12.50;74.60;100917.75;5061484;28;20205;-67
2021/09/24 04:48:32;;;;;;;18.40;6.37;;;;;;;12.45;74.93;100908.16;5043716;28;20176;-66
2021/09/24 04:50:57;;;;;;;20.10;6.33;;;;;;;12.54;74.61;100903.84;5060777;28;20165;-67
2021/09/24 04:53:23;;;;;;;20.53;5.63;;;;;;;12.52;73.72;100905.59;5062418;28;20700;-67
2021/09/24 04:55:48;;;;;;;18.27;6.63;;;;;;;12.47;74.71;100908.16;5062506;28;20179;-67
2021/09/24 04:58:13;;;;;;;21.40;6.30;;;;;;;12.21;75.67;100916.75;5061091;28;20182;-66
2021/09/24 05:00:39;;;;;;;19.70;6.23;;;;;;;12.52;74.98;100916.03;5060572;28;20173;-66
2021/09/24 05:03:04;;;;;;;19.17;5.53;;;;;;;12.32;76.45;100915.94;5060108;28;20255;-67
2021/09/24 05:05:29;;;;;;;17.73;6.40;;;;;;;12.29;75.54;100916.78;5060762;28;20213;-67
2021/09/24 05:07:55;;;;;;;22.97;6.10;;;;;;;12.21;75.71;100916.75;5061309;28;20177;-68
2021/09/24 05:10:20;;;;;;;16.70;7.70;;;;;;;12.13;76.43;100919.31;5060598;28;20181;-66
2021/09/24 05:12:45;;;;;;;20.30;6.10;;;;;;;12.29;75.86;100920.28;5060961;28;20523;-67
2021/09/24 05:15:11;;;;;;;24.60;7.20;;;;;;;12.25;76.29;100922.88;5060982;28;20235;-67
2021/09/24 05:17:36;;;;;;;23.57;5.80;;;;;;;12.36;75.84;100921.19;5060597;28;20252;-67
2021/09/24 05:20:02;;;;;;;21.27;6.70;;;;;;;12.20;76.24;100922.84;5060351;28;20578;-67
2021/09/24 05:22:27;;;;;;;18.67;6.27;;;;;;;11.99;77.68;100920.09;5043056;28;20196;-67
2021/09/24 05:24:53;;;;;;;24.83;6.70;;;;;;;12.26;76.96;100925.50;5060172;28;20434;-66
2021/09/24 05:27:18;;;;;;;18.10;5.60;;;;;;;12.03;77.80;100927.06;5060291;28;20206;-66
2021/09/24 05:29:43;;;;;;;13.53;5.87;;;;;;;12.33;76.75;100925.53;5060229;28;20511;-67
2021/09/24 05:32:13;;;;;;;25.80;6.57;;;;;;;12.10;78.00;100916.69;5058974;28;20543;-65
2021/09/24 05:34:38;;;;;;;17.40;6.07;;;;;;;12.21;77.36;100924.59;5058567;28;20189;-66
2021/09/24 05:37:04;;;;;;;17.77;6.37;;;;;;;12.57;76.65;100928.25;5059658;28;20698;-67
2021/09/24 05:39:30;;;;;;;18.27;6.73;;;;;;;12.54;76.71;100924.75;5059609;28;20218;-67
2021/09/24 05:41:55;;;;;;;19.90;6.40;;;;;;;12.61;76.94;100927.41;5059608;28;20416;-67
2021/09/24 05:44:20;;;;;;;24.13;6.50;;;;;;;12.53;77.16;100921.28;5059962;28;20448;-66
2021/09/24 05:46:46;;;;;;;18.63;5.87;;;;;;;12.66;77.33;100927.41;5059451;28;20209;-66
2021/09/24 05:49:11;;;;;;;21.30;6.63;;;;;;;12.94;76.00;100931.00;5058859;28;20201;-66
2021/09/24 05:51:36;;;;;;;24.73;6.40;;;;;;;12.70;76.56;100926.56;5057743;28;20226;-66
2021/09/24 05:54:02;;;;;;;22.87;7.30;;;;;;;12.59;77.10;100930.88;5058808;28;20177;-68
2021/09/24 05:56:27;;;;;;;27.90;7.03;;;;;;;12.86;76.36;100932.72;5059848;28;20177;-67
2021/09/24 05:58:53;;;;;;;18.00;6.90;;;;;;;12.71;76.80;100919.59;5059730;28;20177;-66
2021/09/24 06:01:18;;;;;;;17.43;7.17;;;;;;;12.89;76.46;100926.63;5059553;28;20181;-67
2021/09/24 06:03:43;;;;;;;18.40;6.50;;;;;;;12.80;77.05;100919.63;5059875;28;20177;-66
2021/09/24 06:06:09;;;;;;;16.70;5.90;;;;;;;12.68;77.67;100922.19;5059503;28;20263;-66
2021/09/24 06:08:34;;;;;;;19.13;6.10;;;;;;;13.21;75.99;100918.84;5041983;28;20569;-67
2021/09/24 06:10:59;;;;;;;20.03;6.50;;;;;;;13.08;76.60;100933.69;5059831;28;20204;-66
2021/09/24 06:13:25;;;;;;;14.27;5.70;;;;;;;13.32;75.79;100924.97;5064989;28;20185;-70
2021/09/24 06:15:50;;;;;;;21.50;6.83;;;;;;;13.13;76.53;100929.31;5060857;28;20193;-68
2021/09/24 06:18:16;;;;;;;18.10;6.17;;;;;;;13.21;76.54;100918.00;5055876;28;20227;-68
2021/09/24 06:20:42;;;;;;;20.17;6.27;;;;;;;13.53;75.34;100930.25;5056793;28;20610;-66
2021/09/24 06:23:07;;;;;;;17.63;6.50;;;;;;;13.58;74.77;100933.75;5057925;28;20573;-66
2021/09/24 06:25:33;;;;;;;25.50;7.57;;;;;;;13.75;74.93;100933.78;5057951;28;20463;-64
2021/09/24 06:27:59;;;;;;;18.97;6.40;;;;;;;13.42;76.34;100939.00;5056864;28;20296;-65
2021/09/24 06:30:25;;;;;;;17.13;7.03;;;;;;;13.32;76.88;100942.44;5057447;28;20583;-66
2021/09/24 06:32:50;;;;;;;14.23;5.60;;;;;;;13.31;77.84;100943.28;5058160;28;20169;-65
2021/09/24 06:35:16;;;;;;;9.47;5.33;;;;;;;13.61;76.50;100947.75;5057763;28;20245;-65
2021/09/24 06:37:42;;;;;;;17.13;6.00;;;;;;;13.45;77.60;100949.47;5058195;28;20195;-65
2021/09/24 06:40:09;;;;;;;15.57;5.90;;;;;;;13.58;78.98;100949.47;5059148;28;20231;-66
2021/09/24 06:42:36;;;;;;;15.30;5.70;;;;;;;13.55;79.61;100941.63;5056560;28;20420;-67
2021/09/24 06:45:03;;;;;;;14.73;6.20;;;;;;;13.78;79.90;100947.72;5057480;28;20874;-65
2021/09/24 06:47:28;;;;;;;17.10;7.40;;;;;;;13.88;79.61;100948.63;5058266;28;20511;-65
2021/09/24 06:49:54;;;;;;;12.70;5.80;;;;;;;13.41;82.19;100950.34;5058267;28;20507;-66
2021/09/24 06:52:19;;;;;;;17.00;5.77;;;;;;;13.78;81.35;100952.09;5058616;28;20232;-66
2021/09/24 06:54:45;;;;;;;11.87;5.10;;;;;;;13.72;81.66;100945.13;5058562;28;20189;-65
2021/09/24 06:57:11;;;;;;;15.47;5.70;;;;;;;13.99;81.12;100946.00;5040611;28;20608;-64
2021/09/24 06:59:37;;;;;;;10.90;5.30;;;;;;;13.63;82.04;100945.97;5057722;28;20193;-65
2021/09/24 07:02:02;;;;;;;14.53;6.70;;;;;;;14.10;80.83;100948.59;5058168;28;20789;-65
2021/09/24 07:04:27;;;;;;;13.53;5.97;;;;;;;13.72;81.98;100944.22;5057633;28;20170;-65
2021/09/24 07:06:53;;;;;;;14.10;6.70;;;;;;;13.93;81.11;100944.22;5058177;28;20209;-65
2021/09/24 07:09:18;;;;;;;13.70;6.10;;;;;;;14.18;80.85;100946.84;5058573;28;20181;-64
2021/09/24 07:11:48;;;;;;;17.23;6.40;;;;;;;13.71;82.46;100953.84;5057831;28;20173;-65
2021/09/24 07:14:14;;;;;;;20.23;6.67;;;;;;;13.91;81.94;100952.97;5058207;28;20244;-67
2021/09/24 07:16:40;;;;;;;21.63;7.10;;;;;;;14.10;81.41;100953.84;5058207;28;20432;-65
2021/09/24 07:19:06;;;;;;;16.87;6.90;;;;;;;14.27;80.73;100948.53;5057975;28;20481;-66
2021/09/24 07:21:31;;;;;;;16.37;5.90;;;;;;;14.09;81.64;100942.47;5058054;28;20173;-66
2021/09/24 07:23:57;;;;;;;15.40;6.43;;;;;;;14.55;80.05;100948.47;5057993;28;20427;-66
2021/09/24 07:26:22;;;;;;;17.20;6.90;;;;;;;14.46;80.11;100942.38;5058131;28;20243;-67
2021/09/24 07:28:48;;;;;;;15.33;6.83;;;;;;;14.46;80.49;100931.00;5057680;28;20177;-64
2021/09/24 07:31:13;;;;;;;16.70;6.70;;;;;;;14.59;79.75;100935.34;5058197;28;20223;-65
2021/09/24 07:33:38;;;;;;;16.27;6.70;;;;;;;14.61;80.03;100941.47;5056982;28;20189;-64
2021/09/24 07:36:04;;;;;;;17.50;6.00;;;;;;;14.39;80.91;100940.63;5057596;28;20178;-64
2021/09/24 07:38:30;;;;;;;12.80;6.80;;;;;;;14.40;81.37;100939.78;5058219;28;20205;-65
2021/09/24 07:40:55;;;;;;;14.30;7.03;;;;;;;14.59;80.70;100930.09;5057480;28;20181;-64
2021/09/24 07:43:21;;;;;;;16.80;7.23;;;;;;;14.81;79.90;100923.00;5058122;28;20519;-65
2021/09/24 07:45:47;;;;;;;16.80;6.60;;;;;;;15.31;78.34;100918.34;5058198;28;20197;-64
2021/09/24 07:48:12;;;;;;;11.67;6.33;;;;;;;15.53;77.64;100917.31;5061641;28;20530;-65
2021/09/24 07:50:37;;;;;;;10.17;6.03;;;;;;;15.40;76.98;100906.91;5062053;28;20179;-65
2021/09/24 07:53:03;;;;;;;10.93;6.37;;;;;;;15.81;76.51;100913.59;5062146;28;20275;-65
2021/09/24 07:55:28;;;;;;;12.90;6.33;;;;;;;15.95;75.81;100923.09;5061900;28;20209;-64
2021/09/24 07:57:56;;;;;;;15.37;6.43;;;;;;;16.19;74.89;100913.22;5061915;28;20261;-64
2021/09/24 08:00:25;;;;;;;13.90;5.50;;;;;;;16.78;72.54;100906.38;5061649;28;20442;-67
2021/09/24 08:02:51;;;;;;;14.03;4.93;;;;;;;16.55;73.09;100908.41;5061660;28;20437;-63
2021/09/24 08:05:16;;;;;;;10.13;5.07;;;;;;;16.46;73.64;100904.16;5061257;28;20573;-63
2021/09/24 08:07:42;;;;;;;14.70;6.00;;;;;;;16.99;71.86;100912.25;5061741;28;20201;-64
2021/09/24 08:10:08;;;;;;;7.80;4.90;;;;;;;16.68;72.48;100907.38;5061222;28;20212;-63
2021/09/24 08:12:33;;;;;;;15.57;6.37;;;;;;;16.75;72.34;100903.78;5061600;28;20443;-64
2021/09/24 08:14:59;;;;;;;11.57;4.47;;;;;;;16.43;73.52;100905.06;5044622;28;20177;-63
2021/09/24 08:17:24;;;;;;;12.10;4.80;;;;;;;16.12;74.71;100907.16;5061272;28;20224;-63
2021/09/24 08:19:49;;;;;;;10.43;5.20;;;;;;;16.43;73.92;100905.06;5061300;28;20213;-63
2021/09/24 08:22:15;;;;;;;10.73;5.43;;;;;;;16.57;73.74;100898.75;5061792;28;20199;-63
2021/09/24 08:24:40;;;;;;;12.60;5.30;;;;;;;17.22;71.08;100904.00;5061251;28;20312;-64
2021/09/24 08:27:05;;;;;;;11.63;4.70;;;;;;;16.78;72.45;100901.09;5061418;28;20165;-64
2021/09/24 08:29:31;;;;;;;8.10;5.07;;;;;;;16.71;72.38;100902.09;5061381;28;20158;-63
2021/09/24 08:31:57;;;;;;;10.93;4.40;;;;;;;16.66;73.29;100901.28;5061341;28;20174;-62
2021/09/24 08:34:22;;;;;;;9.93;5.00;;;;;;;16.72;73.21;100911.69;5061130;28;20586;-62
2021/09/24 08:36:47;;;;;;;9.20;4.80;;;;;;;16.39;74.45;100905.97;5061431;28;20173;-64
2021/09/24 08:39:13;;;;;;;11.20;5.20;;;;;;;16.76;74.07;100916.03;5061222;28;20577;-63
2021/09/24 08:41:38;;;;;;;8.90;4.30;;;;;;;16.61;74.07;100910.97;5060799;28;20273;-64
2021/09/24 08:44:04;;;;;;;7.20;4.57;;;;;;;16.47;74.54;100914.66;5061237;28;20191;-63
2021/09/24 08:46:33;;;;;;;10.67;4.87;;;;;;;16.62;74.17;100918.00;5060319;28;20219;-63
2021/09/24 08:49:02;;;;;;;9.63;5.30;;;;;;;16.43;75.29;100926.09;5060669;28;20260;-63
2021/09/24 08:51:28;;;;;;;6.97;5.37;;;;;;;16.35;75.38;100924.47;5060663;28;20876;-63
2021/09/24 08:53:53;;;;;;;9.20;5.63;;;;;;;16.71;74.22;100925.78;5060477;28;20452;-63
2021/09/24 08:56:18;;;;;;;10.27;6.03;;;;;;;16.78;74.07;100923.94;5060970;28;20180;-64
2021/09/24 08:58:44;;;;;;;10.20;5.10;;;;;;;16.54;74.75;100922.47;5060067;28;20450;-63
2021/09/24 09:01:09;;;;;;;11.63;6.00;;;;;;;16.43;75.26;100919.97;5060563;28;20208;-63
2021/09/24 09:03:55;;;;;;;7.70;4.40;;;;;;;16.90;73.47;100918.53;5060860;28;20162;-63
2021/09/24 09:06:21;;;;;;;10.67;5.60;;;;;;;16.80;74.30;100912.47;5060784;28;20209;-63
2021/09/24 09:08:46;;;;;;;6.23;4.93;;;;;;;16.98;73.48;100910.50;5043218;28;20455;-64
2021/09/24 09:11:14;;;;;;;11.17;4.80;;;;;;;17.10;72.62;100905.09;5060230;28;20189;-63
2021/09/24 09:13:41;;;;;;;8.00;5.10;;;;;;;16.98;73.11;100905.25;5043015;28;20530;-63
2021/09/24 09:16:12;;;;;;;8.00;5.17;;;;;;;17.00;73.13;100898.19;5060749;28;20824;-63
2021/09/24 09:18:39;;;;;;;9.23;5.57;;;;;;;16.88;73.99;100899.22;5042770;28;20427;-63
2021/09/24 09:21:06;;;;;;;8.10;5.27;;;;;;;16.88;74.33;100900.97;5060243;28;20436;-63
2021/09/24 09:23:34;;;;;;;6.87;4.87;;;;;;;17.04;73.35;100907.78;5060654;28;20412;-63
2021/09/24 09:26:03;;;;;;;7.90;4.67;;;;;;;16.77;75.04;100901.97;5059751;28;20471;-62
2021/09/24 09:28:36;;;;;;;11.70;5.80;;;;;;;16.71;74.72;100906.47;5060189;28;20420;-63
2021/09/24 09:31:02;;;;;;;9.10;5.40;;;;;;;17.13;73.79;100902.41;5059808;28;20423;-63
2021/09/24 09:33:28;;;;;;;6.10;4.63;;;;;;;16.76;75.21;100908.13;5041692;28;20887;-63
2021/09/24 09:35:59;;;;;;;7.43;5.00;;;;;;;16.78;75.38;100903.72;5060207;28;20420;-63
2021/09/24 09:38:33;;;;;;;8.00;4.90;;;;;;;16.99;73.74;100914.88;5060000;28;20530;-62
2021/09/24 09:41:02;;;;;;;7.30;4.90;;;;;;;17.12;73.87;100912.97;5060010;28;20420;-63
2021/09/24 09:43:34;;;;;;;7.90;5.20;;;;;;;16.97;74.25;100920.19;5060014;28;20419;-63
2021/09/24 09:46:02;;;;;;;7.73;5.40;;;;;;;17.38;73.01;100917.81;5060125;28;20460;-63
2021/09/24 09:48:27;;;;;;;7.73;4.60;;;;;;;17.07;73.92;100922.69;5059807;28;20493;-63
2021/09/24 09:50:53;;;;;;;10.27;5.10;;;;;;;17.50;72.62;100920.25;5059654;28;20404;-63
2021/09/24 09:53:18;;;;;;;6.70;5.70;;;;;;;17.06;72.94;100927.09;5059793;28;20196;-62
2021/09/24 09:56:06;;;;;;;7.20;5.13;;;;;;;17.26;73.38;100920.66;5059513;28;20169;-63
2021/09/24 09:58:36;;;;;;;9.20;5.67;;;;;;;17.36;72.64;100924.00;5046528;28;20188;-63
2021/09/24 10:01:09;;;;;;;10.67;6.20;;;;;;;17.61;72.87;100921.84;5059426;28;20562;-63
2021/09/24 10:03:41;;;;;;;5.63;5.00;;;;;;;17.24;73.18;100925.06;5059348;28;20420;-63
2021/09/24 10:06:32;;;;;;;10.63;5.07;;;;;;;17.23;74.07;100925.97;5059509;28;20463;-63
2021/09/24 10:08:59;;;;;;;5.43;4.80;;;;;;;17.64;71.97;100927.06;5046416;28;20420;-63
2021/09/24 10:11:36;;;;;;;10.13;4.80;;;;;;;17.06;73.72;100927.09;5059293;28;20428;-62
2021/09/24 10:14:12;;;;;;;6.80;4.73;;;;;;;17.58;71.83;100928.03;5041657;28;20459;-63
2021/09/24 10:16:43;;;;;;;13.30;6.10;;;;;;;17.60;72.08;100914.84;5059248;28;20530;-63
2021/09/24 10:19:09;;;;;;;8.07;5.70;;;;;;;17.40;72.99;100917.78;5057269;28;20431;-63
2021/09/24 10:21:35;;;;;;;8.90;5.07;;;;;;;17.17;73.05;100917.25;5057305;28;20451;-62
2021/09/24 10:24:01;;;;;;;7.07;4.93;;;;;;;17.38;73.15;100920.47;5058823;28;20187;-64
2021/09/24 10:26:35;;;;;;;6.70;4.50;;;;;;;17.36;73.33;100919.63;5058441;28;20217;-63
2021/09/24 10:29:05;;;;;;;7.87;5.30;;;;;;;17.31;73.32;100924.09;5048030;28;20436;-64
2021/09/24 10:31:36;;;;;;;5.90;5.30;;;;;;;17.10;73.93;100926.16;5055435;28;20454;-63
2021/09/24 10:34:02;;;;;;;8.93;6.77;;;;;;;17.29;73.43;100921.47;5058490;28;20831;-63
2021/09/24 10:36:54;;;;;;;5.60;4.90;;;;;;;17.34;73.51;100921.41;5059182;28;20491;-63
2021/09/24 10:39:29;;;;;;;7.50;5.43;;;;;;;17.39;73.64;100922.19;5056177;28;20185;-63
2021/09/24 10:42:26;;;;;;;7.30;5.40;;;;;;;17.34;73.22;100913.50;5056765;28;20442;-63
2021/09/24 10:45:11;;;;;;;7.33;4.90;;;;;;;17.26;73.59;100915.38;5056091;28;20439;-64
2021/09/24 10:48:04;;;;;;;5.43;4.60;;;;;;;16.92;74.98;100915.88;5058146;28;20412;-64
2021/09/24 10:50:32;;;;;;;9.33;5.80;;;;;;;16.90;75.32;100922.91;5055677;28;20859;-63
2021/09/24 10:53:10;;;;;;;8.53;5.50;;;;;;;17.18;74.10;100915.47;5057651;28;20790;-63
2021/09/24 10:55:35;;;;;;;9.33;5.20;;;;;;;17.21;73.63;100914.56;5058394;28;20415;-64
2021/09/24 10:58:01;;;;;;;11.10;6.20;;;;;;;17.71;72.63;100920.81;5058012;28;20737;-63
2021/09/24 11:00:29;;;;;;;11.43;5.30;;;;;;;17.45;73.25;100910.69;5058182;28;20696;-63
2021/09/24 11:03:11;;;;;;;11.10;6.20;;;;;;;17.55;73.08;100909.66;5057822;28;20482;-64
2021/09/24 11:05:52;;;;;;;11.30;5.80;;;;;;;17.58;72.77;100895.56;5055901;28;20495;-64
2021/09/24 11:08:29;;;;;;;10.80;6.67;;;;;;;17.71;72.74;100891.81;5057598;28;20411;-64
2021/09/24 11:11:20;;;;;;;14.80;9.03;;;;;;;17.97;71.90;100896.63;5057626;28;20403;-65
2021/09/24 11:13:49;;;;;;;8.63;6.03;;;;;;;18.03;71.87;100900.06;5055211;28;20464;-63
2021/09/24 11:16:16;;;;;;;11.83;6.33;;;;;;;17.84;72.52;100895.94;5057668;28;20908;-62
2021/09/24 11:18:53;;;;;;;7.30;6.60;;;;;;;17.82;72.51;100900.38;5057414;28;20499;-64